sensor_id;sensor_type;location;lat;lon;timestamp;pressure;altitude;pressure_sealevel;temperature;humidity
77737;BME280;66903;59.926;30.404;2023-04-12T00:01:45;101520.88;;;29.08;26.71
77737;BME280;66903;59.926;30.404;2023-04-12T00:06:46;101520.88;;;29.08;26.97
77737;BME280;66903;59.926;30.404;2023-04-12T00:11:47;101522.03;;;29.07;26.66
77737;BME280;66903;59.926;30.404;2023-04-12T00:16:48;101505.09;;;29.06;26.51
77737;BME280;66903;59.926;30.404;2023-04-12T00:21:49;101505.63;;;29.08;26.53
77737;BME280;66903;59.926;30.404;2023-04-12T00:26:49;101516.28;;;29.07;26.40
77737;BME280;66903;59.926;30.404;2023-04-12T00:31:50;101502.56;;;29.04;26.71
77737;BME280;66903;59.926;30.404;2023-04-12T00:36:50;101508.53;;;29.08;26.78
77737;BME280;66903;59.926;30.404;2023-04-12T00:41:51;101506.81;;;29.07;26.43
77737;BME280;66903;59.926;30.404;2023-04-12T00:46:52;101508.31;;;29.04;26.99
77737;BME280;66903;59.926;30.404;2023-04-12T00:51:52;101514.06;;;29.04;26.97
77737;BME280;66903;59.926;30.404;2023-04-12T00:56:53;101518.94;;;29.04;26.68
77737;BME280;66903;59.926;30.404;2023-04-12T01:01:56;101512.69;;;29.02;27.01
77737;BME280;66903;59.926;30.404;2023-04-12T01:17:21;101526.53;;;29.00;26.75
77737;BME280;66903;59.926;30.404;2023-04-12T01:27:52;101513.63;;;28.97;26.74
77737;BME280;66903;59.926;30.404;2023-04-12T01:33:02;101526.88;;;28.98;26.49
77737;BME280;66903;59.926;30.404;2023-04-12T01:38:05;101516.19;;;28.99;26.93
77737;BME280;66903;59.926;30.404;2023-04-12T01:43:08;101507.56;;;28.99;26.57
77737;BME280;66903;59.926;30.404;2023-04-12T01:48:12;101510.75;;;28.97;26.34
77737;BME280;66903;59.926;30.404;2023-04-12T01:53:56;101516.19;;;28.99;26.50
77737;BME280;66903;59.926;30.404;2023-04-12T01:59:13;101523.13;;;28.98;26.31
77737;BME280;66903;59.926;30.404;2023-04-12T02:04:16;101523.47;;;28.96;26.26
77737;BME280;66903;59.926;30.404;2023-04-12T02:09:27;101521.72;;;28.95;26.12
77737;BME280;66903;59.926;30.404;2023-04-12T02:14:27;101518.03;;;28.95;26.48
77737;BME280;66903;59.926;30.404;2023-04-12T02:19:30;101514.28;;;28.94;25.95
77737;BME280;66903;59.926;30.404;2023-04-12T02:24:31;101513.75;;;28.92;26.42
77737;BME280;66903;59.926;30.404;2023-04-12T02:29:32;101510.56;;;28.94;26.73
77737;BME280;66903;59.926;30.404;2023-04-12T02:34:33;101501.91;;;28.94;26.49
77737;BME280;66903;59.926;30.404;2023-04-12T02:39:56;101505.00;;;28.97;26.28
77737;BME280;66903;59.926;30.404;2023-04-12T02:50:03;101509.19;;;28.91;25.81
77737;BME280;66903;59.926;30.404;2023-04-12T02:55:04;101509.19;;;28.91;25.88
77737;BME280;66903;59.926;30.404;2023-04-12T03:00:06;101500.84;;;28.90;26.45
77737;BME280;66903;59.926;30.404;2023-04-12T03:05:16;101499.69;;;28.91;25.81
77737;BME280;66903;59.926;30.404;2023-04-12T03:10:17;101498.84;;;28.90;26.25
77737;BME280;66903;59.926;30.404;2023-04-12T03:15:17;101504.59;;;28.90;26.22
77737;BME280;66903;59.926;30.404;2023-04-12T03:20:18;101501.72;;;28.90;26.65
77737;BME280;66903;59.926;30.404;2023-04-12T03:25:19;101511.19;;;28.91;26.68
77737;BME280;66903;59.926;30.404;2023-04-12T03:30:20;101507.47;;;28.90;26.58
77737;BME280;66903;59.926;30.404;2023-04-12T03:35:20;101501.72;;;28.90;26.36
77737;BME280;66903;59.926;30.404;2023-04-12T03:40:21;101509.47;;;28.90;26.03
77737;BME280;66903;59.926;30.404;2023-04-12T03:45:21;101514.41;;;28.89;25.81
77737;BME280;66903;59.926;30.404;2023-04-12T03:50:22;101516.09;;;28.90;26.35
77737;BME280;66903;59.926;30.404;2023-04-12T03:55:22;101511.19;;;28.91;26.52
77737;BME280;66903;59.926;30.404;2023-04-12T04:00:23;101516.63;;;28.92;26.12
77737;BME280;66903;59.926;30.404;2023-04-12T04:05:23;101510.00;;;28.92;26.38
77737;BME280;66903;59.926;30.404;2023-04-12T04:10:24;101516.63;;;28.92;25.93
77737;BME280;66903;59.926;30.404;2023-04-12T04:15:25;101514.69;;;28.74;26.59
77737;BME280;66903;59.926;30.404;2023-04-12T04:20:27;101524.06;;;28.53;26.84
77737;BME280;66903;59.926;30.404;2023-04-12T04:25:27;101523.53;;;28.32;26.97
77737;BME280;66903;59.926;30.404;2023-04-12T04:30:29;101523.84;;;28.17;27.31
77737;BME280;66903;59.926;30.404;2023-04-12T04:35:30;101523.94;;;28.12;27.54
77737;BME280;66903;59.926;30.404;2023-04-12T04:40:31;101520.28;;;28.06;27.10
77737;BME280;66903;59.926;30.404;2023-04-12T04:45:31;101519.19;;;28.02;27.33
77737;BME280;66903;59.926;30.404;2023-04-12T04:50:32;101528.78;;;27.98;27.64
77737;BME280;66903;59.926;30.404;2023-04-12T04:55:32;101516.75;;;27.96;27.58
77737;BME280;66903;59.926;30.404;2023-04-12T05:00:33;101523.63;;;27.95;26.98
77737;BME280;66903;59.926;30.404;2023-04-12T05:05:35;101522.84;;;27.89;28.09
77737;BME280;66903;59.926;30.404;2023-04-12T05:10:35;101522.25;;;27.92;28.61
77737;BME280;66903;59.926;30.404;2023-04-12T05:15:39;101523.69;;;27.90;29.77
77737;BME280;66903;59.926;30.404;2023-04-12T05:20:40;101522.00;;;27.89;29.99
77737;BME280;66903;59.926;30.404;2023-04-12T05:25:45;101520.53;;;27.91;31.00
77737;BME280;66903;59.926;30.404;2023-04-12T05:30:47;101512.53;;;28.07;30.86
77737;BME280;66903;59.926;30.404;2023-04-12T05:35:50;101521.97;;;28.40;29.91
77737;BME280;66903;59.926;30.404;2023-04-12T05:40:53;101531.41;;;28.59;29.86
77737;BME280;66903;59.926;30.404;2023-04-12T05:45:54;101539.97;;;28.77;30.16
77737;BME280;66903;59.926;30.404;2023-04-12T05:50:54;101531.13;;;29.01;29.64
77737;BME280;66903;59.926;30.404;2023-04-12T05:55:55;101526.56;;;29.13;28.76
77737;BME280;66903;59.926;30.404;2023-04-12T06:00:56;101529.53;;;29.22;28.84
77737;BME280;66903;59.926;30.404;2023-04-12T06:05:56;101526.63;;;29.35;28.92
77737;BME280;66903;59.926;30.404;2023-04-12T06:10:57;101517.56;;;29.42;28.54
77737;BME280;66903;59.926;30.404;2023-04-12T06:15:57;101515.19;;;29.44;28.77
77737;BME280;66903;59.926;30.404;2023-04-12T06:20:58;101518.78;;;29.63;28.70
77737;BME280;66903;59.926;30.404;2023-04-12T06:25:59;101530.50;;;29.80;29.09
77737;BME280;66903;59.926;30.404;2023-04-12T06:31:00;101536.00;;;29.90;28.79
77737;BME280;66903;59.926;30.404;2023-04-12T06:36:00;101516.09;;;30.02;28.49
77737;BME280;66903;59.926;30.404;2023-04-12T06:41:01;101519.41;;;30.18;28.89
77737;BME280;66903;59.926;30.404;2023-04-12T06:46:01;101524.53;;;30.43;29.76
77737;BME280;66903;59.926;30.404;2023-04-12T06:51:02;101523.63;;;30.87;29.91
77737;BME280;66903;59.926;30.404;2023-04-12T06:56:03;101527.56;;;31.38;28.93
77737;BME280;66903;59.926;30.404;2023-04-12T07:01:05;101530.84;;;31.88;29.23
77737;BME280;66903;59.926;30.404;2023-04-12T07:06:06;101558.22;;;32.33;28.78
77737;BME280;66903;59.926;30.404;2023-04-12T07:11:06;101539.78;;;32.72;28.74
77737;BME280;66903;59.926;30.404;2023-04-12T07:16:07;101540.53;;;33.07;28.89
77737;BME280;66903;59.926;30.404;2023-04-12T07:21:07;101541.38;;;33.36;28.46
77737;BME280;66903;59.926;30.404;2023-04-12T07:26:08;101538.84;;;33.64;28.69
77737;BME280;66903;59.926;30.404;2023-04-12T07:31:09;101542.25;;;33.87;29.19
77737;BME280;66903;59.926;30.404;2023-04-12T07:36:10;101545.53;;;34.06;29.15
77737;BME280;66903;59.926;30.404;2023-04-12T07:41:11;101552.38;;;34.22;29.29
77737;BME280;66903;59.926;30.404;2023-04-12T07:46:11;101561.06;;;34.42;28.81
77737;BME280;66903;59.926;30.404;2023-04-12T07:51:11;101545.53;;;34.59;28.58
77737;BME280;66903;59.926;30.404;2023-04-12T07:56:12;101553.22;;;34.76;28.24
77737;BME280;66903;59.926;30.404;2023-04-12T08:01:14;101551.66;;;34.90;28.61
77737;BME280;66903;59.926;30.404;2023-04-12T08:06:15;101554.38;;;34.95;27.59
77737;BME280;66903;59.926;30.404;2023-04-12T08:11:16;101555.94;;;34.93;28.11
77737;BME280;66903;59.926;30.404;2023-04-12T08:16:17;101550.47;;;34.91;27.85
77737;BME280;66903;59.926;30.404;2023-04-12T08:21:17;101543.28;;;34.89;27.51
77737;BME280;66903;59.926;30.404;2023-04-12T08:26:18;101550.81;;;34.90;27.55
77737;BME280;66903;59.926;30.404;2023-04-12T08:31:18;101552.16;;;34.92;27.19
77737;BME280;66903;59.926;30.404;2023-04-12T08:36:19;101539.38;;;34.93;26.78
77737;BME280;66903;59.926;30.404;2023-04-12T08:41:20;101538.63;;;34.96;27.07
77737;BME280;66903;59.926;30.404;2023-04-12T08:46:21;101546.63;;;34.99;27.36
77737;BME280;66903;59.926;30.404;2023-04-12T08:51:21;101545.16;;;34.93;27.13
77737;BME280;66903;59.926;30.404;2023-04-12T08:56:22;101544.75;;;34.83;26.66
77737;BME280;66903;59.926;30.404;2023-04-12T09:01:22;101546.44;;;34.84;26.93
77737;BME280;66903;59.926;30.404;2023-04-12T09:06:23;101546.34;;;34.92;26.58
77737;BME280;66903;59.926;30.404;2023-04-12T09:11:26;101547.72;;;35.07;26.08
77737;BME280;66903;59.926;30.404;2023-04-12T09:16:40;101535.03;;;35.23;26.47
77737;BME280;66903;59.926;30.404;2023-04-12T09:21:56;101524.59;;;35.34;25.69
77737;BME280;66903;59.926;30.404;2023-04-12T09:27:04;101537.44;;;35.33;25.59
77737;BME280;66903;59.926;30.404;2023-04-12T09:32:06;101541.22;;;35.34;25.79
77737;BME280;66903;59.926;30.404;2023-04-12T09:37:15;101547.59;;;35.39;25.74
77737;BME280;66903;59.926;30.404;2023-04-12T09:42:15;101537.06;;;35.35;25.56
77737;BME280;66903;59.926;30.404;2023-04-12T09:47:16;101533.81;;;35.36;24.93
77737;BME280;66903;59.926;30.404;2023-04-12T09:52:17;101540.63;;;35.40;25.30
77737;BME280;66903;59.926;30.404;2023-04-12T09:57:19;101533.22;;;35.43;25.25
77737;BME280;66903;59.926;30.404;2023-04-12T10:02:26;101536.25;;;35.46;24.73
77737;BME280;66903;59.926;30.404;2023-04-12T10:07:28;101530.16;;;35.39;24.97
77737;BME280;66903;59.926;30.404;2023-04-12T10:12:28;101528.47;;;35.38;24.93
77737;BME280;66903;59.926;30.404;2023-04-12T10:17:30;101513.34;;;35.33;24.74
77737;BME280;66903;59.926;30.404;2023-04-12T10:22:31;101524.00;;;35.29;24.46
77737;BME280;66903;59.926;30.404;2023-04-12T10:27:32;101523.88;;;35.25;24.62
77737;BME280;66903;59.926;30.404;2023-04-12T10:32:33;101518.31;;;35.20;24.27
77737;BME280;66903;59.926;30.404;2023-04-12T10:37:59;101511.06;;;35.26;24.79
77737;BME280;66903;59.926;30.404;2023-04-12T10:48:38;101514.91;;;35.06;24.05
77737;BME280;66903;59.926;30.404;2023-04-12T10:53:39;101519.03;;;34.93;24.09
77737;BME280;66903;59.926;30.404;2023-04-12T11:04:16;101507.63;;;34.88;24.36
77737;BME280;66903;59.926;30.404;2023-04-12T11:09:25;101506.63;;;34.72;24.08
77737;BME280;66903;59.926;30.404;2023-04-12T11:14:28;101516.75;;;34.54;24.48
77737;BME280;66903;59.926;30.404;2023-04-12T11:19:33;101501.53;;;34.36;24.34
77737;BME280;66903;59.926;30.404;2023-04-12T11:24:40;101513.84;;;34.21;24.08
77737;BME280;66903;59.926;30.404;2023-04-12T11:29:43;101513.38;;;33.99;24.55
77737;BME280;66903;59.926;30.404;2023-04-12T11:34:44;101513.19;;;33.75;24.13
77737;BME280;66903;59.926;30.404;2023-04-12T11:39:51;101517.28;;;33.53;24.01
77737;BME280;66903;59.926;30.404;2023-04-12T11:44:52;101504.28;;;33.30;24.48
77737;BME280;66903;59.926;30.404;2023-04-12T11:49:57;101509.84;;;33.14;24.48
77737;BME280;66903;59.926;30.404;2023-04-12T11:55:01;101505.31;;;32.96;24.40
77737;BME280;66903;59.926;30.404;2023-04-12T12:00:04;101501.13;;;32.77;24.38
77737;BME280;66903;59.926;30.404;2023-04-12T12:05:06;101502.88;;;32.61;24.36
77737;BME280;66903;59.926;30.404;2023-04-12T12:10:07;101497.31;;;32.47;24.22
77737;BME280;66903;59.926;30.404;2023-04-12T12:15:08;101499.19;;;32.34;24.29
77737;BME280;66903;59.926;30.404;2023-04-12T12:20:19;101504.28;;;32.29;23.88
77737;BME280;66903;59.926;30.404;2023-04-12T12:25:21;101499.41;;;32.12;23.78
77737;BME280;66903;59.926;30.404;2023-04-12T12:30:22;101506.22;;;31.99;24.11
77737;BME280;66903;59.926;30.404;2023-04-12T12:35:24;101499.59;;;31.90;24.28
77737;BME280;66903;59.926;30.404;2023-04-12T12:40:29;101505.84;;;31.84;24.21
77737;BME280;66903;59.926;30.404;2023-04-12T12:45:33;101505.84;;;31.75;24.53
77737;BME280;66903;59.926;30.404;2023-04-12T12:50:35;101498.53;;;31.69;24.65
77737;BME280;66903;59.926;30.404;2023-04-12T12:55:35;101496.16;;;31.63;24.77
77737;BME280;66903;59.926;30.404;2023-04-12T13:00:36;101494.28;;;31.58;24.66
77737;BME280;66903;59.926;30.404;2023-04-12T13:05:37;101493.59;;;31.53;24.82
77737;BME280;66903;59.926;30.404;2023-04-12T13:10:37;101495.81;;;31.47;24.59
77737;BME280;66903;59.926;30.404;2023-04-12T13:15:38;101500.88;;;31.41;24.70
77737;BME280;66903;59.926;30.404;2023-04-12T13:20:38;101501.41;;;31.35;24.61
77737;BME280;66903;59.926;30.404;2023-04-12T13:25:39;101499.47;;;31.30;24.78
77737;BME280;66903;59.926;30.404;2023-04-12T13:30:39;101507.78;;;31.23;24.32
77737;BME280;66903;59.926;30.404;2023-04-12T13:35:40;101507.75;;;31.15;24.42
77737;BME280;66903;59.926;30.404;2023-04-12T13:40:41;101512.84;;;31.09;24.22
77737;BME280;66903;59.926;30.404;2023-04-12T13:45:41;101501.78;;;31.03;24.31
77737;BME280;66903;59.926;30.404;2023-04-12T13:50:42;101508.69;;;30.93;24.25
77737;BME280;66903;59.926;30.404;2023-04-12T13:55:42;101511.09;;;30.91;24.09
77737;BME280;66903;59.926;30.404;2023-04-12T14:00:43;101507.50;;;30.86;23.82
77737;BME280;66903;59.926;30.404;2023-04-12T14:05:43;101513.44;;;30.81;24.04
77737;BME280;66903;59.926;30.404;2023-04-12T14:10:44;101510.13;;;30.74;23.68
77737;BME280;66903;59.926;30.404;2023-04-12T14:15:44;101513.16;;;30.69;23.62
77737;BME280;66903;59.926;30.404;2023-04-12T14:20:47;101522.81;;;30.64;23.79
77737;BME280;66903;59.926;30.404;2023-04-12T14:25:51;101513.09;;;30.60;24.05
77737;BME280;66903;59.926;30.404;2023-04-12T14:30:52;101522.94;;;30.59;24.36
77737;BME280;66903;59.926;30.404;2023-04-12T14:35:52;101522.44;;;30.57;24.56
77737;BME280;66903;59.926;30.404;2023-04-12T14:40:53;101513.25;;;30.55;24.88
77737;BME280;66903;59.926;30.404;2023-04-12T14:45:54;101530.88;;;30.54;24.79
77737;BME280;66903;59.926;30.404;2023-04-12T14:50:54;101524.94;;;30.50;24.93
77737;BME280;66903;59.926;30.404;2023-04-12T14:55:55;101528.47;;;30.47;25.25
77737;BME280;66903;59.926;30.404;2023-04-12T15:00:56;101529.97;;;30.44;24.71
77737;BME280;66903;59.926;30.404;2023-04-12T15:05:57;101529.44;;;30.42;25.17
77737;BME280;66903;59.926;30.404;2023-04-12T15:10:58;101529.16;;;30.44;25.39
77737;BME280;66903;59.926;30.404;2023-04-12T15:15:58;101533.19;;;30.43;25.05
77737;BME280;66903;59.926;30.404;2023-04-12T15:20:59;101532.81;;;30.36;25.45
77737;BME280;66903;59.926;30.404;2023-04-12T15:26:01;101526.78;;;30.24;26.05
77737;BME280;66903;59.926;30.404;2023-04-12T15:31:02;101539.72;;;30.13;25.85
77737;BME280;66903;59.926;30.404;2023-04-12T15:36:04;101531.16;;;29.99;26.03
77737;BME280;66903;59.926;30.404;2023-04-12T15:41:05;101533.97;;;29.91;26.40
77737;BME280;66903;59.926;30.404;2023-04-12T15:46:06;101531.34;;;29.81;25.94
77737;BME280;66903;59.926;30.404;2023-04-12T15:51:06;101531.59;;;29.71;26.24
77737;BME280;66903;59.926;30.404;2023-04-12T15:56:07;101534.34;;;29.76;26.46
77737;BME280;66903;59.926;30.404;2023-04-12T16:01:08;101536.78;;;29.82;26.62
77737;BME280;66903;59.926;30.404;2023-04-12T16:06:09;101541.03;;;29.85;26.08
77737;BME280;66903;59.926;30.404;2023-04-12T16:11:09;101542.16;;;29.75;26.68
77737;BME280;66903;59.926;30.404;2023-04-12T16:16:11;101546.94;;;29.66;26.67
77737;BME280;66903;59.926;30.404;2023-04-12T16:21:13;101548.88;;;29.57;26.61
77737;BME280;66903;59.926;30.404;2023-04-12T16:26:20;101549.00;;;29.52;26.40
77737;BME280;66903;59.926;30.404;2023-04-12T16:31:21;101546.84;;;29.44;26.71
77737;BME280;66903;59.926;30.404;2023-04-12T16:36:22;101552.75;;;29.39;26.33
77737;BME280;66903;59.926;30.404;2023-04-12T16:41:22;101550.97;;;29.29;26.39
77737;BME280;66903;59.926;30.404;2023-04-12T16:46:23;101546.06;;;29.16;25.80
77737;BME280;66903;59.926;30.404;2023-04-12T16:51:24;101560.97;;;29.05;26.17
77737;BME280;66903;59.926;30.404;2023-04-12T16:56:25;101564.56;;;28.97;26.00
77737;BME280;66903;59.926;30.404;2023-04-12T17:01:26;101571.50;;;28.96;26.18
77737;BME280;66903;59.926;30.404;2023-04-12T17:06:26;101573.50;;;28.95;26.40
77737;BME280;66903;59.926;30.404;2023-04-12T17:11:27;101567.22;;;28.93;26.30
77737;BME280;66903;59.926;30.404;2023-04-12T17:16:28;101567.53;;;28.92;26.64
77737;BME280;66903;59.926;30.404;2023-04-12T17:21:37;101579.38;;;28.90;26.68
77737;BME280;66903;59.926;30.404;2023-04-12T17:26:40;101578.63;;;28.85;26.49
77737;BME280;66903;59.926;30.404;2023-04-12T17:31:42;101583.81;;;28.83;26.36
77737;BME280;66903;59.926;30.404;2023-04-12T17:36:44;101583.72;;;28.74;26.33
77737;BME280;66903;59.926;30.404;2023-04-12T17:41:45;101581.03;;;28.64;26.46
77737;BME280;66903;59.926;30.404;2023-04-12T17:46:46;101584.88;;;28.60;26.06
77737;BME280;66903;59.926;30.404;2023-04-12T17:51:46;101590.69;;;28.55;26.19
77737;BME280;66903;59.926;30.404;2023-04-12T17:56:48;101594.59;;;28.45;26.05
77737;BME280;66903;59.926;30.404;2023-04-12T18:01:49;101601.59;;;28.39;26.14
77737;BME280;66903;59.926;30.404;2023-04-12T18:06:51;101618.06;;;28.33;25.79
77737;BME280;66903;59.926;30.404;2023-04-12T18:11:52;101607.19;;;28.30;25.89
77737;BME280;66903;59.926;30.404;2023-04-12T18:16:52;101613.19;;;28.34;26.75
77737;BME280;66903;59.926;30.404;2023-04-12T18:21:53;101617.47;;;28.37;26.33
77737;BME280;66903;59.926;30.404;2023-04-12T18:26:53;101625.06;;;28.27;26.37
77737;BME280;66903;59.926;30.404;2023-04-12T18:31:54;101617.47;;;28.18;25.51
77737;BME280;66903;59.926;30.404;2023-04-12T18:36:54;101617.56;;;28.13;25.47
77737;BME280;66903;59.926;30.404;2023-04-12T18:41:56;101620.19;;;28.09;25.80
77737;BME280;66903;59.926;30.404;2023-04-12T18:46:57;101633.78;;;28.04;25.74
77737;BME280;66903;59.926;30.404;2023-04-12T18:51:57;101637.38;;;27.96;25.57
77737;BME280;66903;59.926;30.404;2023-04-12T18:56:58;101644.03;;;27.91;25.51
77737;BME280;66903;59.926;30.404;2023-04-12T19:02:01;101648.66;;;27.87;25.11
77737;BME280;66903;59.926;30.404;2023-04-12T19:07:01;101647.56;;;27.83;24.89
77737;BME280;66903;59.926;30.404;2023-04-12T19:12:02;101643.53;;;27.84;25.15
77737;BME280;66903;59.926;30.404;2023-04-12T19:17:04;101638.75;;;27.98;24.83
77737;BME280;66903;59.926;30.404;2023-04-12T19:22:04;101641.78;;;28.25;25.05
77737;BME280;66903;59.926;30.404;2023-04-12T19:27:06;101654.19;;;28.40;24.33
77737;BME280;66903;59.926;30.404;2023-04-12T19:32:06;101640.22;;;28.33;24.52
77737;BME280;66903;59.926;30.404;2023-04-12T19:37:11;101636.66;;;28.22;25.30
77737;BME280;66903;59.926;30.404;2023-04-12T19:42:11;101655.38;;;28.20;25.22
77737;BME280;66903;59.926;30.404;2023-04-12T19:47:14;101648.53;;;28.16;25.62
77737;BME280;66903;59.926;30.404;2023-04-12T19:52:14;101656.91;;;28.12;24.51
77737;BME280;66903;59.926;30.404;2023-04-12T19:57:19;101673.16;;;28.03;24.17
77737;BME280;66903;59.926;30.404;2023-04-12T20:02:19;101671.84;;;27.96;24.48
77737;BME280;66903;59.926;30.404;2023-04-12T20:07:20;101667.53;;;27.93;23.99
77737;BME280;66903;59.926;30.404;2023-04-12T20:12:21;101671.84;;;27.96;23.63
77737;BME280;66903;59.926;30.404;2023-04-12T20:17:21;101664.22;;;28.05;23.86
77737;BME280;66903;59.926;30.404;2023-04-12T20:22:22;101671.22;;;28.17;23.66
77737;BME280;66903;59.926;30.404;2023-04-12T20:27:23;101667.94;;;28.24;23.43
77737;BME280;66903;59.926;30.404;2023-04-12T20:32:24;101664.03;;;28.33;23.79
77737;BME280;66903;59.926;30.404;2023-04-12T20:37:24;101669.41;;;28.40;23.61
77737;BME280;66903;59.926;30.404;2023-04-12T20:42:25;101676.78;;;28.46;23.42
77737;BME280;66903;59.926;30.404;2023-04-12T20:47:25;101681.88;;;28.54;23.55
77737;BME280;66903;59.926;30.404;2023-04-12T20:52:26;101694.97;;;28.60;23.85
77737;BME280;66903;59.926;30.404;2023-04-12T20:57:29;101686.25;;;28.65;23.61
77737;BME280;66903;59.926;30.404;2023-04-12T21:02:30;101690.75;;;28.71;24.17
77737;BME280;66903;59.926;30.404;2023-04-12T21:07:30;101690.97;;;28.75;24.33
77737;BME280;66903;59.926;30.404;2023-04-12T21:12:32;101706.91;;;28.67;24.83
77737;BME280;66903;59.926;30.404;2023-04-12T21:17:34;101704.44;;;28.61;25.29
77737;BME280;66903;59.926;30.404;2023-04-12T21:22:35;101709.97;;;28.57;25.17
77737;BME280;66903;59.926;30.404;2023-04-12T21:27:36;101719.22;;;28.54;25.71
77737;BME280;66903;59.926;30.404;2023-04-12T21:32:37;101718.97;;;28.51;25.46
77737;BME280;66903;59.926;30.404;2023-04-12T21:37:38;101720.13;;;28.50;25.74
77737;BME280;66903;59.926;30.404;2023-04-12T21:42:39;101723.34;;;28.29;23.78
77737;BME280;66903;59.926;30.404;2023-04-12T21:47:40;101731.34;;;26.08;23.76
77737;BME280;66903;59.926;30.404;2023-04-12T21:52:41;101727.38;;;24.85;27.24
77737;BME280;66903;59.926;30.404;2023-04-12T21:57:43;101730.75;;;25.38;27.33
77737;BME280;66903;59.926;30.404;2023-04-12T22:02:43;101731.91;;;26.05;27.19
77737;BME280;66903;59.926;30.404;2023-04-12T22:07:45;101740.13;;;26.61;27.21
77737;BME280;66903;59.926;30.404;2023-04-12T22:12:46;101740.91;;;27.05;26.59
77737;BME280;66903;59.926;30.404;2023-04-12T22:17:49;101745.25;;;27.31;26.69
77737;BME280;66903;59.926;30.404;2023-04-12T22:22:50;101749.13;;;27.45;26.62
77737;BME280;66903;59.926;30.404;2023-04-12T22:27:50;101755.06;;;27.54;25.96
77737;BME280;66903;59.926;30.404;2023-04-12T22:33:12;101749.81;;;27.61;26.43
77737;BME280;66903;59.926;30.404;2023-04-12T22:38:15;101758.03;;;27.67;26.69
77737;BME280;66903;59.926;30.404;2023-04-12T22:43:24;101754.53;;;27.70;27.04
77737;BME280;66903;59.926;30.404;2023-04-12T22:48:25;101765.44;;;27.73;26.90
77737;BME280;66903;59.926;30.404;2023-04-12T22:53:26;101752.53;;;27.71;26.80
77737;BME280;66903;59.926;30.404;2023-04-12T22:58:27;101755.59;;;27.79;27.17
77737;BME280;66903;59.926;30.404;2023-04-12T23:03:28;101768.19;;;27.83;27.35
77737;BME280;66903;59.926;30.404;2023-04-12T23:08:29;101760.97;;;27.86;27.51
77737;BME280;66903;59.926;30.404;2023-04-12T23:13:30;101757.25;;;27.85;27.73
77737;BME280;66903;59.926;30.404;2023-04-12T23:18:34;101768.09;;;27.88;27.19
77737;BME280;66903;59.926;30.404;2023-04-12T23:23:35;101773.84;;;27.88;26.84
77737;BME280;66903;59.926;30.404;2023-04-12T23:28:35;101766.97;;;27.89;27.21
77737;BME280;66903;59.926;30.404;2023-04-12T23:33:36;101769.84;;;27.89;27.49
77737;BME280;66903;59.926;30.404;2023-04-12T23:38:38;101774.72;;;27.89;27.76
77737;BME280;66903;59.926;30.404;2023-04-12T23:43:39;101770.66;;;27.90;28.38
77737;BME280;66903;59.926;30.404;2023-04-12T23:48:40;101778.44;;;27.89;27.82
77737;BME280;66903;59.926;30.404;2023-04-12T23:53:56;101788.50;;;27.92;28.31
77737;BME280;66903;59.926;30.404;2023-04-12T23:59:08;101779.28;;;27.90;28.16
